createdAt,value
2023-03-25T00:02:21.267Z,99534.78
2023-03-25T00:04:54.566Z,99527.81
2023-03-25T00:07:21.693Z,99542.16
2023-03-25T00:09:48.547Z,99531.28
2023-03-25T00:12:18.440Z,99529.00
2023-03-25T00:14:54.121Z,99532.00
2023-03-25T00:17:26.378Z,99535.03
2023-03-25T00:19:52.675Z,99532.53
2023-03-25T00:22:19.215Z,99529.31
2023-03-25T00:24:45.903Z,99531.50
2023-03-25T00:27:14.230Z,99524.63
2023-03-25T00:29:44.385Z,99525.41
2023-03-25T00:32:11.972Z,99529.44
2023-03-25T00:34:47.723Z,99525.69
2023-03-25T00:37:21.582Z,99538.69
2023-03-25T00:39:48.191Z,99539.66
2023-03-25T00:42:17.970Z,99536.19
2023-03-25T00:44:44.442Z,99540.13
2023-03-25T00:47:12.411Z,99544.41
2023-03-25T00:49:38.794Z,99543.94
2023-03-25T00:52:05.201Z,99533.44
2023-03-25T00:54:34.155Z,99534.88
2023-03-25T00:57:00.815Z,99544.66
2023-03-25T00:59:27.311Z,99537.19
2023-03-25T01:01:56.235Z,99536.38
2023-03-25T01:04:22.679Z,99535.94
2023-03-25T01:06:51.819Z,99544.31
2023-03-25T01:09:19.803Z,99532.03
2023-03-25T01:11:47.799Z,99538.00
2023-03-25T01:14:17.235Z,99543.50
2023-03-25T01:16:44.374Z,99534.16
2023-03-25T01:19:11.773Z,99537.00
2023-03-25T01:21:38.339Z,99537.16
2023-03-25T01:24:06.028Z,99519.69
2023-03-25T01:26:32.605Z,99537.28
2023-03-25T01:28:59.010Z,99530.03
2023-03-25T01:31:30.079Z,99533.44
2023-03-25T01:33:57.938Z,99529.00
2023-03-25T01:36:25.818Z,99527.19
2023-03-25T01:38:52.245Z,99530.03
2023-03-25T01:41:18.723Z,99524.63
2023-03-25T01:44:06.698Z,99531.81
2023-03-25T01:46:33.728Z,99528.28
2023-03-25T01:49:02.187Z,99520.06
2023-03-25T01:51:31.432Z,99507.94
2023-03-25T01:53:58.076Z,99509.75
2023-03-25T01:56:30.112Z,99508.84
2023-03-25T01:58:57.467Z,99517.56
2023-03-25T02:01:26.546Z,99507.25
2023-03-25T02:03:54.590Z,99508.31
2023-03-25T02:06:31.914Z,99506.53
2023-03-25T02:08:59.442Z,99518.03
2023-03-25T02:11:29.143Z,99501.34
2023-03-25T02:13:57.589Z,99510.72
2023-03-25T02:16:34.415Z,99494.59
2023-03-25T02:19:45.943Z,99496.38
2023-03-25T02:22:37.866Z,99492.44
2023-03-25T02:25:19.412Z,99500.81
2023-03-25T02:28:10.119Z,99496.28
2023-03-25T02:30:48.636Z,99503.41
2023-03-25T02:33:14.951Z,99506.44
2023-03-25T02:35:49.890Z,99502.25
2023-03-25T02:38:31.503Z,99496.34
2023-03-25T02:41:02.484Z,99502.44
2023-03-25T02:43:36.024Z,99500.81
2023-03-25T02:46:08.103Z,99498.84
2023-03-25T02:48:45.174Z,99488.44
2023-03-25T02:51:23.296Z,99500.47
2023-03-25T02:53:51.047Z,99494.31
2023-03-25T02:56:22.117Z,99503.50
2023-03-25T02:58:49.749Z,99500.66
2023-03-25T03:01:16.160Z,99502.06
2023-03-25T03:03:42.638Z,99502.53
2023-03-25T03:06:15.957Z,99500.41
2023-03-25T03:08:51.478Z,99495.16
2023-03-25T03:11:22.956Z,99490.69
2023-03-25T03:14:23.194Z,99494.69
2023-03-25T03:17:00.654Z,99495.47
2023-03-25T03:19:34.190Z,99489.44
2023-03-25T03:22:15.143Z,99498.31
2023-03-25T03:24:48.726Z,99501.09
2023-03-25T03:27:23.703Z,99491.41
2023-03-25T03:29:55.501Z,99501.81
2023-03-25T03:32:46.477Z,99496.38
2023-03-25T03:35:17.534Z,99488.19
2023-03-25T03:37:48.730Z,99496.38
2023-03-25T03:40:20.596Z,99490.06
2023-03-25T03:42:57.634Z,99501.91
2023-03-25T03:45:45.453Z,99485.59
2023-03-25T03:48:24.738Z,99494.94
2023-03-25T03:50:56.718Z,99493.69
2023-03-25T03:53:29.703Z,99494.69
2023-03-25T03:56:04.486Z,99501.44
2023-03-25T03:58:42.642Z,99505.34
2023-03-25T04:01:33.655Z,99515.25
2023-03-25T04:04:03.177Z,99520.41
2023-03-25T04:06:38.763Z,99509.31
2023-03-25T04:09:43.924Z,99506.78
2023-03-25T04:12:19.946Z,99504.88
2023-03-25T04:14:46.747Z,99511.59
2023-03-25T04:17:13.602Z,99508.59
2023-03-25T04:19:40.021Z,99511.44
2023-03-25T04:22:06.904Z,99500.59
2023-03-25T04:24:33.418Z,99495.09
2023-03-25T04:27:03.387Z,99502.19
2023-03-25T04:29:32.038Z,99507.31
2023-03-25T04:31:58.682Z,99505.44
2023-03-25T04:34:26.991Z,99504.91
2023-03-25T04:36:54.890Z,99502.47
2023-03-25T04:39:22.740Z,99496.03
2023-03-25T04:41:49.978Z,99499.84
2023-03-25T04:44:16.957Z,99498.06
2023-03-25T04:46:43.349Z,99499.28
2023-03-25T04:49:19.096Z,99503.69
2023-03-25T04:51:45.526Z,99498.06
2023-03-25T04:54:12.095Z,99493.09
2023-03-25T04:56:39.704Z,99494.84
2023-03-25T04:59:06.323Z,99500.84
2023-03-25T05:01:33.061Z,99487.72
2023-03-25T05:04:07.627Z,99501.25
2023-03-25T05:06:38.846Z,99501.59
2023-03-25T05:09:07.125Z,99500.63
2023-03-25T05:11:34.907Z,99491.53
2023-03-25T05:14:01.286Z,99493.47
2023-03-25T05:16:27.722Z,99492.16
2023-03-25T05:18:54.152Z,99486.38
2023-03-25T05:21:21.578Z,99482.16
2023-03-25T05:23:47.966Z,99483.69
2023-03-25T05:26:14.364Z,99486.50
2023-03-25T05:28:41.350Z,99480.59
2023-03-25T05:31:08.466Z,99493.84
2023-03-25T05:33:37.089Z,99498.78
2023-03-25T05:36:04.431Z,99493.31
2023-03-25T05:38:33.111Z,99488.34
2023-03-25T05:41:00.281Z,99495.38
2023-03-25T05:43:26.734Z,99493.44
2023-03-25T05:45:53.301Z,99499.22
2023-03-25T05:48:20.087Z,99518.09
2023-03-25T05:50:46.494Z,99499.13
2023-03-25T05:53:15.375Z,99512.03
2023-03-25T05:55:41.980Z,99506.97
2023-03-25T05:58:08.589Z,99520.31
2023-03-25T06:00:36.688Z,99513.09
2023-03-25T06:03:06.762Z,99511.69
2023-03-25T06:05:33.750Z,99514.72
2023-03-25T06:08:01.777Z,99501.44
2023-03-25T06:10:28.160Z,99504.47
2023-03-25T06:12:55.051Z,99504.34
2023-03-25T06:15:28.732Z,99513.09
2023-03-25T06:17:56.690Z,99507.97
2023-03-25T06:20:23.202Z,99506.66
2023-03-25T06:22:49.630Z,99492.84
2023-03-25T06:25:18.888Z,99504.44
2023-03-25T06:27:49.862Z,99503.72
2023-03-25T06:30:19.870Z,99500.25
2023-03-25T06:32:50.563Z,99509.88
2023-03-25T06:35:19.680Z,99515.03
2023-03-25T06:37:47.351Z,99513.25
2023-03-25T06:40:14.505Z,99503.72
2023-03-25T06:42:41.797Z,99506.44
2023-03-25T06:45:08.841Z,99515.75
2023-03-25T06:47:35.333Z,99515.41
2023-03-25T06:50:01.820Z,99517.13
2023-03-25T06:52:28.220Z,99515.69
2023-03-25T06:54:55.048Z,99514.44
2023-03-25T06:57:21.422Z,99520.84
2023-03-25T06:59:48.258Z,99512.13
2023-03-25T07:02:15.397Z,99507.06
2023-03-25T07:04:41.811Z,99512.25
2023-03-25T07:07:09.086Z,99509.91
2023-03-25T07:09:35.610Z,99509.19
2023-03-25T07:12:01.990Z,99516.31
2023-03-25T07:14:28.454Z,99517.13
2023-03-25T07:16:54.844Z,99507.94
2023-03-25T07:19:21.316Z,99520.44
2023-03-25T07:21:47.687Z,99519.19
2023-03-25T07:24:14.078Z,99524.06
2023-03-25T07:26:40.514Z,99522.03
2023-03-25T07:29:07.167Z,99522.13
2023-03-25T07:31:33.606Z,99533.25
2023-03-25T07:33:59.993Z,99527.28
2023-03-25T07:36:26.938Z,99523.09
2023-03-25T07:38:55.804Z,99519.59
2023-03-25T07:41:23.319Z,99525.50
2023-03-25T07:43:49.754Z,99532.28
2023-03-25T07:46:16.326Z,99530.78
2023-03-25T07:48:42.781Z,99533.69
2023-03-25T07:51:09.969Z,99529.31
2023-03-25T07:53:38.948Z,99533.38
2023-03-25T07:56:06.553Z,99534.50
2023-03-25T07:58:32.933Z,99538.69
2023-03-25T08:00:59.321Z,99538.94
2023-03-25T08:03:25.804Z,99540.38
2023-03-25T08:05:52.445Z,99553.03
2023-03-25T08:08:19.006Z,99553.19
2023-03-25T08:10:47.112Z,99562.28
2023-03-25T08:13:14.032Z,99555.28
2023-03-25T08:15:40.676Z,99572.38
2023-03-25T08:18:07.535Z,99567.97
2023-03-25T08:20:34.910Z,99565.00
2023-03-25T08:23:02.787Z,99566.75
2023-03-25T08:25:30.155Z,99568.69
2023-03-25T08:27:56.717Z,99568.50
2023-03-25T08:30:23.128Z,99565.41
2023-03-25T08:32:54.223Z,99578.09
2023-03-25T08:35:23.522Z,99578.41
2023-03-25T08:37:50.331Z,99562.13
2023-03-25T08:40:20.072Z,99568.09
2023-03-25T08:42:46.698Z,99568.19
2023-03-25T08:45:15.130Z,99566.59
2023-03-25T08:47:42.372Z,99565.31
2023-03-25T08:50:09.171Z,99561.72
2023-03-25T08:52:36.063Z,99561.56
2023-03-25T08:55:02.773Z,99569.16
2023-03-25T08:57:29.240Z,99571.19
2023-03-25T08:59:55.802Z,99568.88
2023-03-25T09:02:22.169Z,99562.56
2023-03-25T09:04:49.129Z,99564.00
2023-03-25T09:07:15.783Z,99568.53
2023-03-25T09:09:42.249Z,99558.91
2023-03-25T09:12:08.820Z,99561.25
2023-03-25T09:14:35.272Z,99559.06
2023-03-25T09:17:01.889Z,99559.56
2023-03-25T09:19:28.326Z,99563.47
2023-03-25T09:21:54.725Z,99562.25
2023-03-25T09:24:22.670Z,99565.34
2023-03-25T09:26:49.307Z,99564.53
2023-03-25T09:29:15.668Z,99569.44
2023-03-25T09:31:42.179Z,99576.75
2023-03-25T09:34:08.914Z,99581.00
2023-03-25T09:36:35.329Z,99581.63
2023-03-25T09:39:01.871Z,99577.00
2023-03-25T09:41:54.724Z,99573.19
2023-03-25T09:44:47.216Z,99566.22
2023-03-25T09:47:15.042Z,99564.94
2023-03-25T09:49:45.230Z,99558.13
2023-03-25T09:52:22.746Z,99559.56
2023-03-25T09:54:55.457Z,99568.88
2023-03-25T09:57:25.320Z,99575.59
2023-03-25T09:59:52.645Z,99578.72
2023-03-25T10:02:40.840Z,99583.22
2023-03-25T10:05:32.840Z,99595.91
2023-03-25T10:08:14.011Z,99583.25
2023-03-25T10:10:52.494Z,99585.47
2023-03-25T10:13:21.810Z,99584.28
2023-03-25T10:16:14.699Z,99577.00
2023-03-25T10:19:00.611Z,99566.94
2023-03-25T10:21:41.680Z,99572.19
2023-03-25T10:24:22.954Z,99581.06
2023-03-25T10:26:58.713Z,99563.63
2023-03-25T10:29:31.091Z,99576.75
2023-03-25T10:32:06.688Z,99573.09
2023-03-25T10:34:38.553Z,99576.69
2023-03-25T10:37:07.758Z,99576.19
2023-03-25T10:39:39.733Z,99585.13
2023-03-25T10:42:29.280Z,99588.44
2023-03-25T10:44:55.728Z,99605.47
2023-03-25T10:47:30.281Z,99611.41
2023-03-25T10:49:56.971Z,99630.88
2023-03-25T10:52:23.381Z,99633.84
2023-03-25T10:54:52.202Z,99622.34
2023-03-25T10:57:29.340Z,99619.13
2023-03-25T11:00:19.340Z,99617.69
2023-03-25T11:02:47.455Z,99622.63
2023-03-25T11:05:22.434Z,99621.63
2023-03-25T11:07:55.338Z,99615.38
2023-03-25T11:10:28.177Z,99616.63
2023-03-25T11:12:56.835Z,99605.00
2023-03-25T11:15:31.045Z,99609.78
2023-03-25T11:18:16.039Z,99610.50
2023-03-25T11:20:57.862Z,99619.81
2023-03-25T11:23:42.230Z,99618.34
2023-03-25T11:26:13.723Z,99625.69
2023-03-25T11:28:42.563Z,99630.97
2023-03-25T11:31:13.886Z,99628.50
2023-03-25T11:33:42.014Z,99627.34
2023-03-25T11:36:41.048Z,99632.00
2023-03-25T11:39:18.500Z,99641.56
2023-03-25T11:41:45.564Z,99617.66
2023-03-25T11:44:31.944Z,99605.72
2023-03-25T11:47:06.888Z,99601.34
2023-03-25T11:49:42.573Z,99598.59
2023-03-25T11:52:21.108Z,99584.75
2023-03-25T11:54:47.905Z,99587.66
2023-03-25T11:57:17.333Z,99556.00
2023-03-25T11:59:48.039Z,99566.59
2023-03-25T12:02:31.043Z,99553.31
2023-03-25T12:05:23.840Z,99563.13
2023-03-25T12:07:51.990Z,99570.28
2023-03-25T12:10:33.125Z,99562.91
2023-03-25T12:13:12.685Z,99563.56
2023-03-25T12:15:45.495Z,99558.44
2023-03-25T12:18:49.606Z,99552.53
2023-03-25T12:21:47.082Z,99558.50
2023-03-25T12:24:22.433Z,99542.34
2023-03-25T12:27:02.208Z,99572.22
2023-03-25T12:29:48.547Z,99547.63
2023-03-25T12:32:47.242Z,99542.69
2023-03-25T12:35:22.428Z,99554.22
2023-03-25T12:38:01.868Z,99559.44
2023-03-25T12:40:53.510Z,99566.16
2023-03-25T12:43:36.515Z,99534.28
2023-03-25T12:46:21.187Z,99552.56
2023-03-25T12:48:59.658Z,99542.78
2023-03-25T12:51:29.438Z,99532.75
2023-03-25T12:54:17.658Z,99527.72
2023-03-25T12:57:02.640Z,99548.19
2023-03-25T12:59:43.848Z,99530.75
2023-03-25T13:02:48.259Z,99520.22
2023-03-25T13:05:32.662Z,99527.84
2023-03-25T13:08:04.728Z,99532.50
2023-03-25T13:10:37.160Z,99513.13
2023-03-25T13:13:09.114Z,99508.78
2023-03-25T13:15:43.321Z,99532.56
2023-03-25T13:18:20.183Z,99516.75
2023-03-25T13:21:11.850Z,99520.28
2023-03-25T13:23:41.155Z,99516.78
2023-03-25T13:26:11.664Z,99525.47
2023-03-25T13:28:43.416Z,99527.97
2023-03-25T13:31:16.642Z,99523.19
2023-03-25T13:33:46.842Z,99515.72
2023-03-25T13:36:26.529Z,99513.63
2023-03-25T13:39:06.464Z,99512.22
2023-03-25T13:41:43.587Z,99510.13
2023-03-25T13:44:15.868Z,99499.69
2023-03-25T13:46:51.972Z,99492.41
2023-03-25T13:49:21.423Z,99510.91
2023-03-25T13:51:47.978Z,99530.78
2023-03-25T13:54:21.267Z,99522.34
2023-03-25T13:57:21.912Z,99530.06
2023-03-25T14:00:11.050Z,99542.16
2023-03-25T14:02:51.489Z,99513.22
2023-03-25T14:05:44.053Z,99532.78
2023-03-25T14:08:18.586Z,99505.72
2023-03-25T14:11:08.722Z,99521.16
2023-03-25T14:13:41.984Z,99527.56
2023-03-25T14:16:20.881Z,99539.53
2023-03-25T14:18:50.782Z,99548.13
2023-03-25T14:21:27.086Z,99570.81
2023-03-25T14:24:03.677Z,99562.94
2023-03-25T14:26:32.360Z,99561.94
2023-03-25T14:29:03.962Z,99558.81
2023-03-25T14:31:32.118Z,99555.38
2023-03-25T14:34:04.425Z,99558.03
2023-03-25T14:36:39.896Z,99569.38
2023-03-25T14:39:11.112Z,99571.13
2023-03-25T14:42:02.369Z,99566.97
2023-03-25T14:44:33.328Z,99569.06
2023-03-25T14:47:25.457Z,99570.28
2023-03-25T14:50:05.214Z,99576.75
2023-03-25T14:52:39.087Z,99572.50
2023-03-25T14:55:29.506Z,99585.16
2023-03-25T14:58:07.248Z,99579.41
2023-03-25T15:00:40.871Z,99582.13
2023-03-25T15:03:12.807Z,99572.06
2023-03-25T15:05:41.115Z,99582.78
2023-03-25T15:08:09.342Z,99582.75
2023-03-25T15:10:40.984Z,99580.41
2023-03-25T15:13:13.294Z,99585.63
2023-03-25T15:15:46.040Z,99582.56
2023-03-25T15:18:13.575Z,99579.69
2023-03-25T15:20:40.088Z,99588.44
2023-03-25T15:23:18.370Z,99606.00
2023-03-25T15:25:50.500Z,99589.47
2023-03-25T15:28:34.980Z,99602.16
2023-03-25T15:31:25.171Z,99585.75
2023-03-25T15:34:16.655Z,99605.97
2023-03-25T15:37:07.987Z,99603.31
2023-03-25T15:40:06.795Z,99579.25
2023-03-25T15:42:55.022Z,99577.97
2023-03-25T15:45:27.403Z,99560.13
2023-03-25T15:48:05.875Z,99578.91
2023-03-25T15:50:35.489Z,99569.88
2023-03-25T15:53:30.059Z,99568.19
2023-03-25T15:56:13.962Z,99552.59
2023-03-25T15:58:55.110Z,99561.78
2023-03-25T16:01:28.071Z,99558.50
2023-03-25T16:04:12.040Z,99550.56
2023-03-25T16:06:42.501Z,99569.84
2023-03-25T16:09:15.970Z,99560.28
2023-03-25T16:11:43.554Z,99569.38
2023-03-25T16:14:15.396Z,99570.13
2023-03-25T16:16:49.231Z,99560.97
2023-03-25T16:19:18.307Z,99562.47
2023-03-25T16:21:48.660Z,99567.66
2023-03-25T16:24:15.870Z,99568.47
2023-03-25T16:26:44.818Z,99582.66
2023-03-25T16:29:18.811Z,99584.84
2023-03-25T16:31:52.029Z,99584.84
2023-03-25T16:34:18.712Z,99585.22
2023-03-25T16:36:46.726Z,99584.84
2023-03-25T16:39:14.769Z,99600.34
2023-03-25T16:41:46.257Z,99605.75
2023-03-25T16:44:16.250Z,99614.78
2023-03-25T16:46:43.796Z,99605.28
2023-03-25T16:49:15.665Z,99609.81
2023-03-25T16:51:44.378Z,99601.84
2023-03-25T16:54:20.705Z,99609.13
2023-03-25T16:56:47.131Z,99614.22
2023-03-25T16:59:21.271Z,99612.50
2023-03-25T17:01:52.450Z,99629.22
2023-03-25T17:04:26.038Z,99622.19
2023-03-25T17:07:03.337Z,99634.50
2023-03-25T17:09:40.097Z,99642.53
2023-03-25T17:12:09.721Z,99649.84
2023-03-25T17:14:38.956Z,99639.06
2023-03-25T17:17:27.971Z,99637.00
2023-03-25T17:19:54.847Z,99653.66
2023-03-25T17:22:28.108Z,99646.88
2023-03-25T17:24:56.807Z,99654.28
2023-03-25T17:27:27.793Z,99652.25
2023-03-25T17:29:57.824Z,99653.25
2023-03-25T17:32:24.698Z,99653.34
2023-03-25T17:35:06.310Z,99659.47
2023-03-25T17:37:33.018Z,99658.41
2023-03-25T17:40:04.127Z,99660.16
2023-03-25T17:42:31.969Z,99667.22
2023-03-25T17:44:58.345Z,99677.47
2023-03-25T17:47:26.066Z,99690.03
2023-03-25T17:49:52.621Z,99687.31
2023-03-25T17:52:20.181Z,99678.38
2023-03-25T17:54:46.823Z,99668.75
2023-03-25T17:57:18.741Z,99676.59
2023-03-25T17:59:46.582Z,99677.94
2023-03-25T18:02:15.507Z,99687.31
2023-03-25T18:04:42.082Z,99709.81
2023-03-25T18:07:08.489Z,99688.41
2023-03-25T18:09:35.010Z,99683.47
2023-03-25T18:12:01.388Z,99683.47
2023-03-25T18:14:27.802Z,99679.03
2023-03-25T18:16:54.850Z,99692.56
2023-03-25T18:19:23.794Z,99712.09
2023-03-25T18:21:50.275Z,99743.03
2023-03-25T18:24:16.679Z,99734.47
2023-03-25T18:26:43.834Z,99730.44
2023-03-25T18:29:28.210Z,99733.47
2023-03-25T18:31:54.796Z,99734.28
2023-03-25T18:34:23.495Z,99731.81
2023-03-25T18:36:50.418Z,99738.63
2023-03-25T18:39:19.511Z,99737.03
2023-03-25T18:41:45.998Z,99735.38
2023-03-25T18:44:12.843Z,99756.91
2023-03-25T18:46:39.567Z,99755.53
2023-03-25T18:49:15.116Z,99766.00
2023-03-25T18:51:41.606Z,99781.84
2023-03-25T18:54:08.895Z,99774.16
2023-03-25T18:56:35.607Z,99789.06
2023-03-25T18:59:02.126Z,99793.13
2023-03-25T19:01:28.947Z,99803.59
2023-03-25T19:04:02.161Z,99790.66
2023-03-25T19:06:29.534Z,99791.66
2023-03-25T19:08:57.129Z,99786.72
2023-03-25T19:11:23.731Z,99793.91
2023-03-25T19:13:51.446Z,99808.00
2023-03-25T19:16:18.605Z,99823.41
2023-03-25T19:18:46.823Z,99820.56
2023-03-25T19:21:18.138Z,99820.25
2023-03-25T19:23:44.911Z,99803.56
2023-03-25T19:26:12.049Z,99801.75
2023-03-25T19:28:38.442Z,99799.47
2023-03-25T19:31:05.287Z,99814.53
2023-03-25T19:33:32.140Z,99831.38
2023-03-25T19:36:01.113Z,99860.38
2023-03-25T19:38:28.610Z,99859.13
2023-03-25T19:41:09.190Z,99860.47
2023-03-25T19:43:36.064Z,99864.28
2023-03-25T19:46:02.571Z,99834.47
2023-03-25T19:48:29.855Z,99850.47
2023-03-25T19:50:56.793Z,99865.94
2023-03-25T19:53:24.305Z,99853.94
2023-03-25T19:55:51.768Z,99867.38
2023-03-25T19:58:20.352Z,99867.09
2023-03-25T20:00:47.368Z,99870.69
2023-03-25T20:03:13.980Z,99883.47
2023-03-25T20:05:41.616Z,99881.00
2023-03-25T20:08:09.349Z,99867.66
2023-03-25T20:10:38.497Z,99874.91
2023-03-25T20:13:05.010Z,99872.16
2023-03-25T20:15:31.456Z,99869.34
2023-03-25T20:17:57.925Z,99874.69
2023-03-25T20:20:24.858Z,99868.78
2023-03-25T20:22:51.667Z,99868.88
2023-03-25T20:25:18.232Z,99875.41
2023-03-25T20:27:45.513Z,99875.06
2023-03-25T20:30:14.731Z,99869.84
2023-03-25T20:32:43.187Z,99879.75
2023-03-25T20:35:12.884Z,99885.66
2023-03-25T20:37:41.018Z,99882.50
2023-03-25T20:40:11.236Z,99878.13
2023-03-25T20:42:39.738Z,99878.94
2023-03-25T20:45:06.671Z,99863.41
2023-03-25T20:47:33.082Z,99864.72
2023-03-25T20:49:59.693Z,99866.88
2023-03-25T20:52:26.202Z,99869.69
2023-03-25T20:54:53.084Z,99863.88
2023-03-25T20:57:19.458Z,99872.13
2023-03-25T20:59:46.074Z,99862.34
2023-03-25T21:02:12.560Z,99860.56
2023-03-25T21:04:38.987Z,99869.22
2023-03-25T21:07:05.824Z,99866.44
2023-03-25T21:09:32.448Z,99876.59
2023-03-25T21:11:58.856Z,99875.88
2023-03-25T21:14:25.743Z,99875.69
2023-03-25T21:16:54.198Z,99874.66
2023-03-25T21:19:20.979Z,99877.44
2023-03-25T21:21:47.384Z,99882.88
2023-03-25T21:24:16.573Z,99882.41
2023-03-25T21:26:42.946Z,99881.47
2023-03-25T21:29:09.311Z,99877.81
2023-03-25T21:31:35.938Z,99882.00
2023-03-25T21:34:02.645Z,99887.56
2023-03-25T21:36:29.714Z,99878.84
2023-03-25T21:38:58.626Z,99884.19
2023-03-25T21:41:25.686Z,99895.59
2023-03-25T21:43:53.227Z,99893.91
2023-03-25T21:46:24.482Z,99888.06
2023-03-25T21:48:50.954Z,99880.69
2023-03-25T21:51:17.503Z,99897.03
2023-03-25T21:53:45.402Z,99896.56
2023-03-25T21:56:20.476Z,99896.25
2023-03-25T21:58:47.968Z,99896.00
2023-03-25T22:01:22.907Z,99893.09
2023-03-25T22:03:53.948Z,99895.59
2023-03-25T22:06:22.485Z,99901.03
2023-03-25T22:08:48.916Z,99905.03
2023-03-25T22:11:18.250Z,99902.16
2023-03-25T22:13:45.511Z,99910.69
2023-03-25T22:16:13.182Z,99904.19
2023-03-25T22:18:39.679Z,99912.06
2023-03-25T22:21:30.126Z,99916.09
2023-03-25T22:24:01.509Z,99917.00
2023-03-25T22:26:29.526Z,99923.28
2023-03-25T22:28:58.698Z,99927.91
2023-03-25T22:31:30.777Z,99926.66
2023-03-25T22:34:10.682Z,99930.09
2023-03-25T22:36:39.361Z,99927.41
2023-03-25T22:39:06.585Z,99925.69
2023-03-25T22:41:33.292Z,99921.66
2023-03-25T22:43:59.806Z,99924.81
2023-03-25T22:46:26.290Z,99930.34
2023-03-25T22:48:52.723Z,99930.69
2023-03-25T22:51:20.788Z,99930.69
2023-03-25T22:53:47.326Z,99927.88
2023-03-25T22:56:13.713Z,99935.72
2023-03-25T22:58:40.731Z,99932.69
2023-03-25T23:01:18.225Z,99938.31
2023-03-25T23:03:44.806Z,99950.78
2023-03-25T23:06:11.297Z,99937.75
2023-03-25T23:08:39.554Z,99948.13
2023-03-25T23:11:11.847Z,99950.41
2023-03-25T23:13:39.835Z,99949.75
2023-03-25T23:16:11.819Z,99956.69
2023-03-25T23:18:39.560Z,99953.22
2023-03-25T23:21:06.714Z,99957.13
2023-03-25T23:23:33.702Z,99956.31
2023-03-25T23:26:03.832Z,99959.22
2023-03-25T23:28:34.207Z,99951.50
2023-03-25T23:31:01.824Z,99957.13
2023-03-25T23:33:28.516Z,99961.28
2023-03-25T23:36:00.366Z,99960.34
2023-03-25T23:38:27.663Z,99958.72
2023-03-25T23:41:06.264Z,99953.72
2023-03-25T23:43:33.128Z,99956.69
2023-03-25T23:45:59.804Z,99951.97
2023-03-25T23:48:26.660Z,99957.03
2023-03-25T23:50:54.359Z,99954.44
2023-03-25T23:53:21.460Z,99960.38
2023-03-25T23:55:50.138Z,99965.63
2023-03-25T23:58:16.643Z,99965.63
